Latest Coastal Weather Observations for Cape Nelson

IDV60701

Issued at 1:41 pm EST Thursday 30 May 2024 (issued every 10 minutes, with the page automatically refreshed every 10 minutes)

About coastal observations | Map of coastal stations | Coastal observations for VIC | Marine services | Other Formats
Station Details ID: 090184 Name: CAPE NELSON LIGHTHOUSE Lat: -38.43 Lon: 141.54 Height: 45.4 m
Data from the previous 72 hours. | See also: Recent months at Cape Nelson
Date/Time
EST
Wind Sea
Height
m
Swell Vis
km
Cloud Weather Temp
°C
Press
MSL
hPa
Rain since
9am
mm
Dir  Spd
kts
Gust
kts
Height
m
Period
s
Dir
30/01:30pm N 14 23 - - - - - - - 13.9 1005.1 3.0
30/01:12pm N 15 25 - - - - - - - 13.9 1005.3 2.8
30/01:00pm N 15 22 - - - - - - - 13.9 1005.3 2.6
30/12:48pm N 16 26 - - - - - - - 13.9 1005.3 2.4
30/12:30pm N 17 26 - - - - - - - 13.9 1005.8 2.2
30/12:00pm N 18 29 - - - - - - Rain 13.9 1006.3 2.0
30/11:30am N 17 29 - - - - - - - 14.1 1007.3 1.0
30/11:00am N 19 31 - - - - - - - 14.4 1007.6 0.6
30/10:30am NNW 19 32 - - - - - - - 16.5 1007.8 0.0
30/10:00am NNW 22 34 - - - - - - - 15.5 1007.5 0.0
30/09:38am N 18 29 - - - - - - - 17.1 1007.3 0.0
30/09:30am N 16 24 - - - - - - - 16.4 1007.2 0.0
30/09:00am N 16 24 - - - - - - - 17.7 1007.0 0.0
30/08:45am N 16 26 - - - - - - - 17.7 1006.6 0.0
30/08:30am N 17 24 - - - - - - - 17.7 1006.9 0.0
30/08:00am N 17 33 - - - - - - - 17.9 1007.1 0.0
30/07:30am NNE 17 27 - - - - - - - 17.2 1007.0 0.0
30/07:00am NNE 14 22 - - - - - - - 16.5 1007.1 0.0
30/06:30am NNE 14 24 - - - - - - - 16.4 1007.7 0.0
30/06:00am NNE 14 21 - - - - - - - 16.5 1008.4 0.0
30/05:30am N 15 21 - - - - - - - 16.7 1008.9 0.0
30/05:00am NNE 14 21 - - - - - - - 16.3 1009.1 0.0
30/04:41am NNE 15 25 - - - - - - - 16.3 1009.5 0.0
30/04:30am NNE 14 20 - - - - - - - 15.9 1009.6 0.0
30/04:00am NNE 15 23 - - - - - - - 16.0 1009.7 0.0
30/03:30am NNE 15 23 - - - - - - - 15.9 1010.1 0.0
30/03:01am N 15 25 - - - - - - - 16.1 1010.2 0.0
30/03:00am N 15 24 - - - - - - - 16.1 1010.1 0.0
30/02:30am N 16 26 - - - - - - - 16.1 1010.6 0.0
30/02:01am N 15 25 - - - - - - - 16.0 1010.8 0.0
30/02:00am N 14 24 - - - - - - - 16.0 1010.8 0.0
30/01:30am N 14 20 - - - - - - - 16.2 1011.4 0.0
30/01:01am N 15 25 - - - - - - - 16.4 1011.9 0.0
30/01:00am N 16 25 - - - - - - - 16.3 1011.9 0.0
30/12:35am N 17 27 - - - - - - - 16.2 1011.9 0.0
30/12:30am N 17 26 - - - - - - - 16.1 1011.9 0.0
30/12:14am N 15 26 - - - - - - - 16.0 1012.2 0.0
30/12:00am N 15 23 - - - - - - - 15.9 1012.2 0.0
 
Date/Time
EST
Wind Sea
Height
m
Swell Vis
km
Cloud Weather Temp
°C
Press
MSL
hPa
Rain since
9am
mm
Dir  Spd
kts
Gust
kts
Height
m
Period
s
Dir
29/11:30pm NNE 16 26 - - - - - - - 15.9 1012.5 0.0
29/11:10pm NNE 15 25 - - - - - - - 16.0 1013.0 0.0
29/11:00pm N 12 18 - - - - - - - 15.8 1013.5 0.0
29/10:30pm N 11 15 - - - - - - - 15.9 1014.3 0.0
29/10:00pm N 11 18 - - - - - - - 15.6 1014.7 0.0
29/09:30pm N 10 15 - - - - - - - 15.4 1015.1 0.0
29/09:00pm N 13 21 - - - - - - - 15.6 1015.1 0.0
29/08:30pm NNE 13 22 - - - - - - - 15.6 1015.0 0.0
29/08:00pm NNE 13 22 - - - - - - - 15.9 1015.2 0.0
29/07:30pm NNE 13 22 - - - - - - - 16.0 1015.4 0.0
29/07:00pm NNE 13 21 - - - - - - - 16.4 1015.4 0.0
29/06:30pm NNE 9 16 - - - - - - - 15.8 1015.8 0.0
29/06:00pm N 8 13 - - - - - - - 15.8 1015.9 0.0
29/05:30pm NNE 5 8 - - - - - - - 15.6 1016.1 0.0
29/05:00pm N 7 10 - - - - - - - 16.6 1016.1 0.0
29/04:30pm N 8 12 - - - - - - - 17.6 1016.2 0.0
29/04:00pm N 10 16 - - - - - - - 18.3 1016.3 0.0
29/03:30pm N 11 17 - - - - - - - 19.1 1016.3 0.0
29/03:00pm N 9 13 - - - - - - - 19.1 1016.6 0.0
29/02:30pm N 13 18 - - - - - - - 19.5 1016.8 0.0
29/02:00pm N 12 17 - - - - - - - 19.6 1017.1 0.0
29/01:30pm N 14 22 - - - - - - - 18.9 1017.6 0.0
29/01:00pm NNW 16 23 - - - - - - - 18.5 1018.1 0.0
29/12:30pm N 13 20 - - - - - - - 18.7 1018.6 0.0
29/12:00pm N 10 19 - - - - - - - 18.1 1019.4 0.0
29/11:30am N 10 17 - - - - - - - 16.9 1020.0 0.0
29/11:00am N 12 18 - - - - - - - 15.7 1020.5 0.0
29/10:30am N 12 18 - - - - - - - 14.8 1020.7 0.0
29/10:00am N 11 15 - - - - - - - 13.8 1021.1 0.0
29/09:30am N 11 17 - - - - - - - 12.5 1021.0 0.0
29/09:00am N 9 15 - - - - - - - 11.9 1021.1 0.0
29/08:30am N 13 18 - - - - - - - 11.1 1021.2 0.0
29/08:00am N 14 21 - - - - - - - 10.9 1021.1 0.0
29/07:37am N 16 26 - - - - - - - 11.2 1020.9 0.0
29/07:30am N 17 24 - - - - - - - 11.2 1021.0 0.0
29/07:00am N 15 22 - - - - - - - 11.4 1020.8 0.0
29/06:30am N 15 24 - - - - - - - 11.8 1020.6 0.0
29/06:00am N 15 23 - - - - - - - 11.7 1020.8 0.0
29/05:30am N 12 18 - - - - - - - 11.5 1021.0 0.0
29/05:00am N 13 19 - - - - - - - 12.0 1021.2 0.0
29/04:30am N 16 24 - - - - - - - 12.4 1021.2 0.0
29/04:00am N 17 25 - - - - - - - 12.9 1021.3 0.0
29/03:30am N 17 25 - - - - - - - 13.3 1021.4 0.0
29/03:00am N 16 25 - - - - - - - 13.6 1021.6 0.0
29/02:30am N 17 25 - - - - - - - 14.0 1021.7 0.0
29/02:00am N 16 26 - - - - - - - 14.1 1021.7 0.0
29/01:30am N 17 27 - - - - - - - 14.3 1021.7 0.0
29/01:00am N 17 27 - - - - - - - 14.4 1021.9 0.0
29/12:58am N 17 27 - - - - - - - 14.5 1021.9 0.0
29/12:30am N 15 21 - - - - - - - 14.4 1022.2 0.0
29/12:00am N 15 22 - - - - - - - 14.3 1022.4 0.0
 
Date/Time
EST
Wind Sea
Height
m
Swell Vis
km
Cloud Weather Temp
°C
Press
MSL
hPa
Rain since
9am
mm
Dir  Spd
kts
Gust
kts
Height
m
Period
s
Dir
28/11:30pm N 14 21 - - - - - - - 14.7 1022.5 0.0
28/11:00pm N 14 21 - - - - - - - 15.0 1022.6 0.0
28/10:30pm N 14 20 - - - - - - - 15.4 1022.6 0.0
28/10:00pm N 14 20 - - - - - - - 15.8 1022.7 0.0
28/09:30pm N 11 15 - - - - - - - 15.5 1022.8 0.0
28/09:00pm N 10 14 - - - - - - - 15.3 1022.9 0.0
28/08:30pm N 10 14 - - - - - - - 15.5 1022.9 0.0
28/08:00pm N 9 13 - - - - - - - 16.0 1022.9 0.0
28/07:30pm N 9 11 - - - - - - - 16.3 1022.9 0.0
28/07:00pm N 8 10 - - - - - - - 16.1 1022.9 0.0
28/06:30pm N 7 9 - - - - - - - 16.2 1022.8 0.0
28/06:00pm N 7 9 - - - - - - - 16.7 1022.6 0.0
28/05:30pm N 6 7 - - - - - - - 17.2 1022.5 0.0
28/05:00pm N 5 7 - - - - - - - 19.0 1022.5 0.0
28/04:30pm N 7 11 - - - - - - - 20.3 1022.5 0.0
28/04:00pm NNW 8 11 - - - - - - - 21.1 1022.6 0.0
28/03:30pm NNW 11 15 - - - - - - - 21.4 1022.6 0.0
28/03:00pm NNW 11 17 - - - - - - - 21.9 1022.6 0.0
28/02:30pm NNW 11 16 - - - - - - - 21.9 1022.7 0.0
28/02:00pm NNW 11 16 - - - - - - - 21.9 1022.8 0.0
28/01:30pm N 12 17 - - - - - - - 21.5 1023.0 0.0
28/01:00pm NNW 12 16 - - - - - - - 21.1 1023.4 0.0
28/12:30pm NNW 14 20 - - - - - - - 20.9 1023.9 0.0
28/12:00pm NNW 13 19 - - - - - - - 20.3 1024.4 0.0
28/11:30am NNW 13 19 - - - - - - - 19.7 1024.9 0.0
28/11:00am NNW 12 17 - - - - - - - 18.9 1025.1 0.0
28/10:30am NNW 12 17 - - - - - - - 18.2 1025.1 0.0
28/10:00am NNW 14 19 - - - - - - - 17.1 1024.9 0.0
28/09:30am NNW 14 19 - - - - - - - 16.1 1024.9 0.0
28/09:00am NNW 13 18 - - - - - - - 15.7 1024.9 0.0
28/08:30am NNW 13 18 - - - - - - - 15.1 1024.8 0.0
28/08:00am NNW 12 17 - - - - - - - 14.1 1024.8 0.0
28/07:30am N 11 16 - - - - - - - 14.1 1024.6 0.0
28/07:00am NNW 13 18 - - - - - - - 15.2 1024.5 0.0
28/06:30am N 11 14 - - - - - - - 14.0 1024.4 0.0
28/06:00am N 11 15 - - - - - - - 13.6 1024.3 0.0
28/05:30am NNW 11 15 - - - - - - - 14.8 1024.2 0.0
28/05:00am NNW 10 13 - - - - - - - 14.2 1024.1 0.0
28/04:30am NNW 10 13 - - - - - - - 14.4 1024.0 0.0
28/04:00am NNW 10 12 - - - - - - - 14.1 1024.0 0.0
28/03:30am NNW 10 13 - - - - - - - 14.0 1024.1 0.0
28/03:00am NNW 10 12 - - - - - - - 13.5 1024.2 0.0
28/02:30am NW 10 13 - - - - - - - 13.6 1024.3 0.0
28/02:00am NNW 10 15 - - - - - - - 14.6 1024.1 0.0
28/01:30am NNW 11 15 - - - - - - - 14.4 1024.0 0.0
28/01:00am NNW 11 15 - - - - - - - 14.7 1024.1 0.0
28/12:30am NNW 11 16 - - - - - - - 14.6 1024.3 0.0
28/12:00am NNW 11 14 - - - - - - - 14.6 1024.5 0.0
 
Date/Time
EST
Wind Sea
Height
m
Swell Vis
km
Cloud Weather Temp
°C
Press
MSL
hPa
Rain since
9am
mm
Dir  Spd
kts
Gust
kts
Height
m
Period
s
Dir
27/11:30pm NNW 13 17 - - - - - - - 14.8 1024.7 0.0
27/11:00pm NW 12 17 - - - - - - - 14.7 1024.8 0.0
27/10:30pm NNW 12 19 - - - - - - - 14.5 1024.9 0.0
27/10:00pm NW 11 15 - - - - - - - 14.2 1024.9 0.0
27/09:30pm NNW 11 14 - - - - - - - 13.8 1024.9 0.0
27/09:00pm NNW 11 14 - - - - - - - 13.7 1024.7 0.0
27/08:30pm NNW 10 13 - - - - - - - 13.6 1024.7 0.0
27/08:00pm NW 10 13 - - - - - - - 13.5 1024.6 0.0
27/07:30pm NNW 10 12 - - - - - - - 13.4 1024.3 0.0
27/07:00pm NNW 8 12 - - - - - - - 13.2 1024.2 0.0
27/06:30pm NNW 9 12 - - - - - - - 13.4 1024.1 0.0
27/06:00pm NNW 9 13 - - - - - - - 13.7 1024.1 0.0
27/05:30pm NW 8 11 - - - - - - - 14.2 1024.0 0.0
27/05:00pm NW 9 14 - - - - - - - 14.9 1023.9 0.0
27/04:30pm NW 10 13 - - - - - - - 15.3 1024.0 0.0
27/04:00pm WNW 11 15 - - - - - - - 15.8 1023.9 0.0
27/03:30pm WNW 10 13 - - - - - - - 16.2 1023.8 0.0
27/03:00pm WNW 10 14 - - - - - - - 16.6 1023.7 0.0
27/02:30pm WNW 9 12 - - - - - - - 17.2 1023.8 0.0
27/02:00pm WNW 10 13 - - - - - - - 17.2 1024.1 0.0

Other formats

Comma delimited format used in spreadsheet applications
http://www.bom.gov.au/fwo/IDV60701/IDV60701.94826.axf

JavaScript Object Notation format (JSON) in row-major order
http://www.bom.gov.au/fwo/IDV60701/IDV60701.94826.json

Data quality

Most of these data are generated automatically and are frequently updated. Quality checks on data are not normally performed. It is possible for incorrect values to appear. Refer to information at About Latest Weather Observations and please check the disclaimer before using these data.